Akiak, Alaska
Current Conditions -  °F | °C
As of 7:56 AM on Friday 19 Dec 2014 (Local Time) from PFKW Reporting Station
Clear Clear  
Wind Chill: -18°   Ceiling: Unl
Heat Index: -11°   Visibility: 10mi
Dew Point: -13°   Wind: 10mph
Humidity: 84%   Direction: 50°NE
Pressure: 29.14"   Gusts: NA
Location:  60.92°N, 161.23°W
Report Text: PFKW 191656Z AUTO 05009KT 10SM CLR M11/M13 A2914 RMK AO2 SLP867 T11111133 FZRANO
Loading
Personal Weather Stations






























Interactive Weather Map New forecast layout! Learn more

10-Day Weather Forecast

Advertisements
Track Severe Weather on mobile